createdAt,value
2023-02-18T00:02:20.867Z,26.17
2023-02-18T00:04:50.651Z,26.38
2023-02-18T00:07:20.327Z,26.92
2023-02-18T00:09:49.995Z,26.85
2023-02-18T00:12:22.353Z,28.77
2023-02-18T00:14:55.225Z,27.55
2023-02-18T00:17:24.848Z,28.50
2023-02-18T00:19:54.672Z,26.48
2023-02-18T00:22:24.301Z,28.35
2023-02-18T00:24:54.072Z,28.52
2023-02-18T00:27:24.002Z,27.40
2023-02-18T00:29:53.795Z,26.50
2023-02-18T00:32:23.521Z,29.10
2023-02-18T00:34:53.134Z,28.58
2023-02-18T00:37:22.848Z,27.65
2023-02-18T00:39:52.589Z,28.42
2023-02-18T00:42:22.286Z,28.95
2023-02-18T00:44:51.993Z,27.83
2023-02-18T00:47:21.867Z,28.33
2023-02-18T00:49:51.587Z,29.50
2023-02-18T00:52:21.361Z,29.15
2023-02-18T00:54:51.004Z,27.92
2023-02-18T00:57:20.632Z,28.70
2023-02-18T00:59:50.399Z,27.52
2023-02-18T01:02:20.152Z,28.63
2023-02-18T01:04:49.972Z,27.92
2023-02-18T01:07:19.602Z,28.20
2023-02-18T01:09:49.252Z,26.95
2023-02-18T01:12:21.571Z,28.27
2023-02-18T01:14:51.201Z,28.08
2023-02-18T01:17:20.773Z,27.70
2023-02-18T01:19:50.396Z,27.60
2023-02-18T01:22:20.300Z,29.35
2023-02-18T01:24:50.019Z,30.00
2023-02-18T01:27:19.713Z,27.48
2023-02-18T01:29:52.589Z,29.27
2023-02-18T01:32:22.237Z,28.80
2023-02-18T01:34:52.006Z,29.95
2023-02-18T01:37:21.617Z,30.75
2023-02-18T01:39:51.323Z,29.80
2023-02-18T01:42:25.368Z,28.20
2023-02-18T01:44:55.390Z,29.45
2023-02-18T01:47:25.116Z,27.65
2023-02-18T01:49:55.314Z,29.27
2023-02-18T01:52:28.622Z,28.98
2023-02-18T01:55:01.357Z,27.48
2023-02-18T01:57:37.442Z,29.05
2023-02-18T02:00:10.457Z,29.40
2023-02-18T02:02:44.575Z,28.67
2023-02-18T02:05:14.382Z,29.15
2023-02-18T02:07:44.537Z,28.80
2023-02-18T02:10:15.274Z,28.92
2023-02-18T02:13:05.958Z,29.17
2023-02-18T02:15:55.718Z,28.27
2023-02-18T02:18:46.508Z,28.30
2023-02-18T02:21:28.190Z,30.17
2023-02-18T02:24:19.042Z,26.48
2023-02-18T02:27:25.232Z,28.05
2023-02-18T02:30:03.866Z,27.80
2023-02-18T02:32:45.732Z,30.23
2023-02-18T02:35:54.115Z,28.42
2023-02-18T02:38:37.297Z,43.08
2023-02-18T02:41:32.893Z,35.00
2023-02-18T02:44:21.725Z,31.02
2023-02-18T02:46:54.534Z,30.10
2023-02-18T02:49:35.278Z,31.02
2023-02-18T02:52:24.851Z,31.52
2023-02-18T03:06:40.164Z,15.40
2023-02-18T03:09:29.651Z,15.68
2023-02-18T03:12:16.502Z,14.65
2023-02-18T03:14:52.198Z,14.95
2023-02-18T03:17:27.741Z,15.27
2023-02-18T03:20:15.522Z,16.65
2023-02-18T03:22:48.582Z,15.00
2023-02-18T03:25:18.532Z,14.90
2023-02-18T03:28:09.583Z,15.13
2023-02-18T03:30:48.331Z,15.82
2023-02-18T03:33:20.047Z,15.90
2023-02-18T03:35:49.811Z,15.73
2023-02-18T03:38:46.630Z,14.98
2023-02-18T03:41:16.309Z,14.27
2023-02-18T03:44:06.013Z,14.13
2023-02-18T03:46:35.948Z,14.48
2023-02-18T03:49:05.633Z,15.70
2023-02-18T03:51:35.415Z,14.20
2023-02-18T03:54:05.109Z,13.70
2023-02-18T03:56:35.518Z,16.13
2023-02-18T03:59:05.904Z,14.82
2023-02-18T04:01:35.595Z,14.60
2023-02-18T04:04:05.270Z,14.85
2023-02-18T04:06:34.921Z,15.23
2023-02-18T04:09:10.289Z,14.38
2023-02-18T04:11:41.258Z,20.63
2023-02-18T04:14:11.149Z,17.55
2023-02-18T04:16:40.752Z,18.67
2023-02-18T04:19:10.427Z,19.17
2023-02-18T04:21:40.041Z,20.85
2023-02-18T04:24:09.762Z,20.77
2023-02-18T04:26:39.394Z,20.70
2023-02-18T04:29:09.453Z,16.90
2023-02-18T04:31:39.182Z,16.23
2023-02-18T04:34:09.750Z,15.55
2023-02-18T04:36:39.369Z,16.15
2023-02-18T04:39:09.013Z,16.02
2023-02-18T04:41:38.699Z,14.75
2023-02-18T04:44:08.362Z,15.05
2023-02-18T04:46:38.245Z,16.05
2023-02-18T04:49:07.939Z,14.38
2023-02-18T04:51:39.128Z,14.40
2023-02-18T04:54:08.839Z,15.23
2023-02-18T04:56:38.451Z,14.85
2023-02-18T04:59:08.092Z,14.93
2023-02-18T05:01:37.904Z,14.90
2023-02-18T05:04:07.648Z,14.55
2023-02-18T05:06:37.250Z,14.15
2023-02-18T05:09:06.952Z,14.65
2023-02-18T05:11:36.588Z,13.38
2023-02-18T05:14:06.237Z,15.35
2023-02-18T05:16:35.838Z,15.48
2023-02-18T05:19:05.490Z,15.55
2023-02-18T05:21:35.646Z,14.32
2023-02-18T05:24:05.317Z,14.30
2023-02-18T05:26:35.052Z,14.77
2023-02-18T05:29:04.830Z,13.70
2023-02-18T05:31:34.638Z,12.88
2023-02-18T05:34:04.217Z,14.93
2023-02-18T05:36:33.813Z,14.20
2023-02-18T05:39:03.430Z,13.32
2023-02-18T05:41:33.087Z,13.15
2023-02-18T05:44:21.119Z,12.57
2023-02-18T05:46:50.704Z,14.60
2023-02-18T05:49:20.384Z,13.45
2023-02-18T05:51:49.984Z,13.65
2023-02-18T05:54:19.590Z,13.30
2023-02-18T05:56:49.196Z,12.63
2023-02-18T05:59:18.910Z,13.90
2023-02-18T06:01:48.794Z,15.13
2023-02-18T06:04:18.575Z,14.60
2023-02-18T06:06:48.239Z,12.75
2023-02-18T06:09:17.975Z,13.77
2023-02-18T06:11:47.718Z,14.40
2023-02-18T06:14:17.315Z,13.15
2023-02-18T06:16:46.945Z,14.82
2023-02-18T06:19:16.688Z,14.27
2023-02-18T06:21:46.424Z,14.73
2023-02-18T06:24:16.166Z,13.57
2023-02-18T06:26:45.881Z,14.65
2023-02-18T06:29:15.499Z,13.93
2023-02-18T06:31:45.204Z,12.93
2023-02-18T06:34:14.880Z,14.18
2023-02-18T06:36:44.500Z,13.75
2023-02-18T06:39:14.089Z,14.07
2023-02-18T06:41:43.692Z,13.48
2023-02-18T06:44:13.254Z,13.40
2023-02-18T06:46:42.839Z,14.40
2023-02-18T06:49:12.489Z,13.90
2023-02-18T06:51:42.095Z,12.93
2023-02-18T06:54:11.784Z,13.32
2023-02-18T06:56:41.402Z,13.63
2023-02-18T06:59:11.169Z,12.90
2023-02-18T07:01:40.801Z,12.50
2023-02-18T07:04:10.470Z,12.88
2023-02-18T07:06:40.177Z,13.88
2023-02-18T07:09:09.825Z,12.52
2023-02-18T07:11:39.512Z,12.30
2023-02-18T07:14:09.264Z,13.13
2023-02-18T07:16:38.992Z,11.80
2023-02-18T07:19:08.686Z,12.80
2023-02-18T07:21:38.262Z,11.70
2023-02-18T07:24:08.314Z,11.43
2023-02-18T07:26:38.013Z,12.27
2023-02-18T07:29:07.612Z,11.20
2023-02-18T07:31:37.403Z,11.52
2023-02-18T07:34:07.196Z,12.30
2023-02-18T07:36:36.825Z,11.60
2023-02-18T07:39:06.558Z,11.00
2023-02-18T07:41:36.251Z,11.13
2023-02-18T07:44:06.268Z,11.77
2023-02-18T07:46:36.033Z,11.32
2023-02-18T07:49:05.610Z,10.80
2023-02-18T07:51:35.192Z,10.43
2023-02-18T07:54:04.860Z,10.77
2023-02-18T07:56:34.542Z,10.65
2023-02-18T07:59:04.217Z,11.75
2023-02-18T08:01:33.964Z,9.82
2023-02-18T08:04:03.594Z,10.32
2023-02-18T08:06:38.179Z,9.75
2023-02-18T08:09:08.103Z,10.95
2023-02-18T08:11:37.894Z,9.55
2023-02-18T08:14:07.782Z,9.73
2023-02-18T08:16:37.550Z,9.90
2023-02-18T08:19:07.158Z,9.98
2023-02-18T08:21:36.877Z,10.05
2023-02-18T08:24:06.678Z,9.75
2023-02-18T08:26:36.335Z,8.77
2023-02-18T08:29:05.970Z,9.35
2023-02-18T08:31:35.679Z,9.10
2023-02-18T08:34:05.521Z,10.43
2023-02-18T08:36:35.146Z,10.07
2023-02-18T08:39:05.021Z,10.15
2023-02-18T08:41:34.682Z,9.15
2023-02-18T08:44:04.272Z,9.50
2023-02-18T08:46:35.268Z,10.18
2023-02-18T08:49:06.583Z,9.40
2023-02-18T08:51:36.291Z,10.00
2023-02-18T08:54:06.006Z,8.02
2023-02-18T08:56:35.838Z,8.35
2023-02-18T08:59:05.400Z,8.77
2023-02-18T09:01:35.105Z,7.78
2023-02-18T09:04:04.800Z,8.38
2023-02-18T09:06:34.482Z,8.55
2023-02-18T09:09:04.152Z,8.18
2023-02-18T09:11:34.025Z,8.63
2023-02-18T09:14:04.505Z,9.48
2023-02-18T09:16:34.155Z,9.88
2023-02-18T09:19:03.881Z,8.57
2023-02-18T09:21:33.605Z,9.35
2023-02-18T09:24:03.591Z,8.27
2023-02-18T09:26:33.333Z,8.63
2023-02-18T09:29:03.004Z,9.48
2023-02-18T09:31:32.737Z,9.63
2023-02-18T09:34:03.882Z,9.90
2023-02-18T09:36:33.591Z,9.00
2023-02-18T09:39:03.322Z,8.60
2023-02-18T09:41:34.782Z,9.57
2023-02-18T09:44:41.071Z,8.43
2023-02-18T09:47:28.584Z,9.57
2023-02-18T09:50:00.695Z,9.57
2023-02-18T09:52:39.847Z,9.57
2023-02-18T09:55:31.884Z,8.98
2023-02-18T09:58:17.559Z,9.32
2023-02-18T10:00:50.003Z,8.35
2023-02-18T10:03:24.380Z,9.52
2023-02-18T10:06:01.071Z,9.98
2023-02-18T10:08:32.288Z,9.05
2023-02-18T10:11:01.848Z,10.18
2023-02-18T10:13:33.317Z,9.20
2023-02-18T10:16:03.771Z,9.60
2023-02-18T10:18:50.740Z,9.65
2023-02-18T10:21:37.681Z,10.38
2023-02-18T10:24:20.389Z,9.52
2023-02-18T10:26:52.802Z,8.95
2023-02-18T10:29:23.166Z,9.73
2023-02-18T10:31:59.368Z,10.05
2023-02-18T10:34:44.901Z,10.85
2023-02-18T10:37:42.118Z,9.73
2023-02-18T10:40:35.284Z,10.27
2023-02-18T10:43:20.052Z,10.15
2023-02-18T10:46:05.199Z,10.27
2023-02-18T10:48:52.992Z,10.88
2023-02-18T10:51:28.157Z,10.65
2023-02-18T10:53:57.726Z,9.63
2023-02-18T10:56:44.500Z,10.05
2023-02-18T10:59:49.882Z,10.65
2023-02-18T11:02:20.642Z,14.18
2023-02-18T11:04:50.275Z,17.33
2023-02-18T11:07:25.403Z,17.67
2023-02-18T11:09:55.932Z,16.67
2023-02-18T11:12:32.856Z,17.67
2023-02-18T11:15:10.718Z,18.92
2023-02-18T11:17:40.332Z,20.48
2023-02-18T11:20:29.882Z,19.15
2023-02-18T11:23:19.879Z,19.42
2023-02-18T11:26:02.536Z,20.23
2023-02-18T11:28:47.454Z,19.67
2023-02-18T11:31:26.379Z,20.05
2023-02-18T11:33:58.616Z,21.35
2023-02-18T11:36:30.595Z,20.17
2023-02-18T11:39:28.142Z,21.00
2023-02-18T11:42:03.117Z,22.92
2023-02-18T11:44:38.514Z,23.30
2023-02-18T11:47:29.791Z,24.67
2023-02-18T11:50:25.440Z,22.77
2023-02-18T11:52:56.308Z,24.73
2023-02-18T11:55:28.745Z,24.40
2023-02-18T11:58:00.722Z,26.40
2023-02-18T12:00:42.592Z,25.88
2023-02-18T12:03:32.934Z,26.73
2023-02-18T12:06:07.436Z,25.88
2023-02-18T12:08:41.499Z,26.80
2023-02-18T12:14:02.516Z,28.52
2023-02-18T12:16:41.608Z,27.60
2023-02-18T12:19:29.392Z,27.92
2023-02-18T12:22:05.026Z,29.65
2023-02-18T12:24:46.354Z,27.85
2023-02-18T12:27:55.464Z,29.17
2023-02-18T12:30:59.828Z,30.20
2023-02-18T12:33:51.026Z,30.17
2023-02-18T12:36:45.415Z,30.90
2023-02-18T12:39:25.242Z,34.55
2023-02-18T12:42:03.979Z,32.58
2023-02-18T12:45:10.051Z,32.83
2023-02-18T12:48:04.238Z,32.65
2023-02-18T12:50:52.112Z,32.65
2023-02-18T12:53:34.022Z,34.88
2023-02-18T12:56:32.005Z,33.47
2023-02-18T12:59:18.491Z,35.67
2023-02-18T13:02:23.461Z,35.92
2023-02-18T13:05:20.401Z,37.03
2023-02-18T13:07:49.966Z,35.90
2023-02-18T13:10:35.070Z,35.05
2023-02-18T13:13:14.088Z,36.38
2023-02-18T13:15:55.961Z,36.95
2023-02-18T13:18:36.049Z,36.90
2023-02-18T13:21:18.528Z,40.58
2023-02-18T13:23:53.164Z,36.42
2023-02-18T13:26:22.902Z,37.75
2023-02-18T13:29:01.597Z,40.40
2023-02-18T13:31:38.645Z,38.97
2023-02-18T13:34:31.129Z,39.83
2023-02-18T13:37:29.707Z,41.92
2023-02-18T13:39:59.854Z,39.95
2023-02-18T13:42:37.334Z,40.92
2023-02-18T13:45:09.029Z,43.42
2023-02-18T13:47:45.634Z,41.75
2023-02-18T13:50:29.118Z,42.63
2023-02-18T13:53:09.467Z,43.00
2023-02-18T13:55:42.020Z,45.28
2023-02-18T13:58:50.601Z,43.15
2023-02-18T14:01:37.200Z,44.33
2023-02-18T14:04:27.018Z,42.28
2023-02-18T14:07:31.534Z,44.75
2023-02-18T14:10:02.096Z,43.85
2023-02-18T14:12:45.794Z,43.53
2023-02-18T14:15:21.169Z,46.90
2023-02-18T14:18:15.300Z,44.88
2023-02-18T14:20:54.209Z,47.58
2023-02-18T14:23:23.759Z,45.85
2023-02-18T14:26:17.461Z,45.90
2023-02-18T14:28:47.959Z,46.70
2023-02-18T14:31:42.493Z,45.55
2023-02-18T14:34:28.737Z,42.95
2023-02-18T14:37:18.039Z,48.38
2023-02-18T14:40:06.241Z,48.65
2023-02-18T14:43:03.054Z,47.47
2023-02-18T14:45:56.711Z,45.08
2023-02-18T14:48:55.798Z,48.20
2023-02-18T14:51:26.346Z,49.60
2023-02-18T14:53:55.947Z,50.20
2023-02-18T14:56:25.696Z,48.92
2023-02-18T14:58:59.079Z,47.10
2023-02-18T15:01:36.490Z,47.40
2023-02-18T15:04:06.632Z,46.50
2023-02-18T15:06:39.902Z,48.83
2023-02-18T15:09:22.157Z,52.03
2023-02-18T15:11:54.577Z,47.58
2023-02-18T15:14:26.764Z,49.33
2023-02-18T15:16:56.349Z,50.83
2023-02-18T15:19:28.391Z,47.80
2023-02-18T15:21:58.784Z,48.08
2023-02-18T15:24:40.688Z,50.20
2023-02-18T15:27:36.646Z,49.75
2023-02-18T15:30:29.812Z,48.72
2023-02-18T15:33:00.855Z,52.05
2023-02-18T15:35:33.032Z,52.35
2023-02-18T15:38:03.172Z,50.03
2023-02-18T15:40:34.178Z,49.17
2023-02-18T15:43:04.443Z,50.28
2023-02-18T15:45:35.370Z,50.53
2023-02-18T15:48:05.082Z,48.80
2023-02-18T15:50:37.142Z,48.55
2023-02-18T15:53:11.331Z,49.55
2023-02-18T15:58:15.965Z,49.72
2023-02-18T16:00:51.556Z,48.80
2023-02-18T16:03:42.513Z,51.13
2023-02-18T16:06:21.843Z,50.38
2023-02-18T16:09:06.125Z,50.63
2023-02-18T16:11:40.794Z,48.45
2023-02-18T16:14:22.972Z,50.70
2023-02-18T16:17:16.821Z,51.80
2023-02-18T16:20:04.739Z,50.00
2023-02-18T16:22:40.399Z,49.90
2023-02-18T16:25:09.919Z,51.97
2023-02-18T16:27:40.445Z,50.45
2023-02-18T16:30:24.532Z,50.50
2023-02-18T16:32:54.321Z,49.20
2023-02-18T16:35:24.585Z,49.22
2023-02-18T16:37:54.996Z,48.53
2023-02-18T16:40:37.569Z,49.25
2023-02-18T16:43:17.980Z,52.42
2023-02-18T16:45:58.496Z,47.53
2023-02-18T16:48:36.330Z,50.13
2023-02-18T16:51:07.843Z,51.90
2023-02-18T16:53:37.460Z,51.05
2023-02-18T16:56:07.788Z,50.97
2023-02-18T16:58:37.588Z,51.55
2023-02-18T17:01:07.340Z,50.38
2023-02-18T17:03:37.024Z,50.08
2023-02-18T17:06:07.188Z,51.58
2023-02-18T17:08:37.840Z,52.00
2023-02-18T17:11:07.537Z,50.65
2023-02-18T17:13:37.200Z,50.00
2023-02-18T17:16:07.923Z,52.25
2023-02-18T17:18:37.708Z,50.25
2023-02-18T17:21:07.555Z,52.78
2023-02-18T17:23:37.145Z,49.78
2023-02-18T17:26:11.451Z,52.17
2023-02-18T17:28:41.169Z,53.65
2023-02-18T17:31:14.037Z,51.83
2023-02-18T17:33:44.437Z,51.53
2023-02-18T17:36:14.354Z,50.03
2023-02-18T17:38:44.043Z,50.85
2023-02-18T17:41:15.110Z,53.45
2023-02-18T17:43:44.769Z,50.58
2023-02-18T17:46:15.510Z,51.90
2023-02-18T17:48:45.587Z,50.53
2023-02-18T17:51:28.159Z,51.33
2023-02-18T17:53:58.038Z,50.75
2023-02-18T17:56:27.709Z,51.35
2023-02-18T17:58:57.507Z,53.00
2023-02-18T18:01:27.545Z,53.42
2023-02-18T18:03:57.185Z,51.53
2023-02-18T18:06:26.810Z,52.95
2023-02-18T18:08:56.464Z,50.60
2023-02-18T18:11:26.760Z,53.42
2023-02-18T18:13:56.455Z,51.92
2023-02-18T18:16:26.053Z,53.65
2023-02-18T18:18:55.723Z,52.97
2023-02-18T18:21:36.058Z,52.05
2023-02-18T18:24:05.901Z,54.67
2023-02-18T18:26:35.464Z,53.15
2023-02-18T18:29:05.094Z,52.65
2023-02-18T18:31:34.867Z,54.85
2023-02-18T18:34:04.596Z,56.08
2023-02-18T18:36:34.214Z,57.05
2023-02-18T18:39:03.847Z,54.20
2023-02-18T18:41:33.433Z,57.00
2023-02-18T18:44:03.765Z,54.30
2023-02-18T18:46:33.498Z,51.72
2023-02-18T18:49:03.264Z,56.20
2023-02-18T18:51:33.327Z,55.75
2023-02-18T18:54:02.921Z,54.35
2023-02-18T18:56:32.507Z,54.83
2023-02-18T18:59:02.315Z,54.78
2023-02-18T19:01:32.293Z,54.30
2023-02-18T19:04:02.106Z,54.78
2023-02-18T19:06:31.747Z,55.30
2023-02-18T19:09:01.349Z,52.92
2023-02-18T19:11:31.064Z,52.10
2023-02-18T19:14:00.731Z,53.17
2023-02-18T19:16:37.192Z,51.35
2023-02-18T19:19:06.870Z,55.50
2023-02-18T19:21:36.451Z,55.63
2023-02-18T19:24:06.343Z,51.40
2023-02-18T19:26:35.920Z,54.13
2023-02-18T19:29:05.481Z,52.00
2023-02-18T19:31:35.226Z,53.53
2023-02-18T19:34:05.010Z,55.10
2023-02-18T19:36:34.707Z,51.70
2023-02-18T19:39:04.316Z,52.63
2023-02-18T19:41:33.964Z,54.75
2023-02-18T19:44:03.616Z,53.10
2023-02-18T19:46:34.009Z,50.08
2023-02-18T19:49:03.640Z,52.22
2023-02-18T19:51:33.249Z,52.85
2023-02-18T19:54:03.514Z,51.88
2023-02-18T19:56:33.145Z,51.92
2023-02-18T19:59:02.717Z,52.08
2023-02-18T20:01:32.408Z,52.63
2023-02-18T20:04:02.374Z,53.83
2023-02-18T20:06:31.960Z,53.00
2023-02-18T20:09:01.554Z,50.80
2023-02-18T20:11:32.933Z,51.72
2023-02-18T20:14:02.629Z,49.97
2023-02-18T20:16:32.262Z,49.28
2023-02-18T20:19:01.930Z,50.35
2023-02-18T20:21:32.139Z,53.42
2023-02-18T20:24:01.836Z,50.67
2023-02-18T20:26:31.471Z,50.55
2023-02-18T20:29:01.308Z,50.70
2023-02-18T20:31:31.096Z,49.20
2023-02-18T20:34:01.019Z,50.55
2023-02-18T20:36:30.739Z,49.83
2023-02-18T20:39:10.819Z,48.08
2023-02-18T20:41:45.072Z,49.88
2023-02-18T20:44:15.261Z,48.35
2023-02-18T20:46:45.263Z,47.17
2023-02-18T20:49:20.048Z,46.53
2023-02-18T20:51:49.987Z,47.40
2023-02-18T20:54:21.222Z,45.25
2023-02-18T20:56:51.654Z,46.15
2023-02-18T20:59:22.257Z,43.13
2023-02-18T21:01:51.901Z,41.53
2023-02-18T21:04:22.024Z,43.03
2023-02-18T21:06:52.140Z,40.15
2023-02-18T21:09:22.871Z,41.10
2023-02-18T21:11:52.547Z,41.08
2023-02-18T21:14:22.358Z,41.15
2023-02-18T21:16:52.160Z,41.10
2023-02-18T21:19:21.786Z,41.95
2023-02-18T21:21:51.486Z,40.05
2023-02-18T21:24:21.118Z,39.53
2023-02-18T21:26:50.938Z,38.38
2023-02-18T21:29:20.495Z,39.63
2023-02-18T21:31:50.151Z,37.00
2023-02-18T21:34:19.900Z,37.28
2023-02-18T21:36:49.961Z,37.67
2023-02-18T21:39:19.574Z,37.60
2023-02-18T21:41:49.207Z,36.55
2023-02-18T21:44:18.888Z,36.67
2023-02-18T21:46:49.967Z,36.10
2023-02-18T21:49:19.642Z,35.60
2023-02-18T21:51:59.481Z,36.15
2023-02-18T21:54:35.066Z,36.42
2023-02-18T21:57:08.077Z,35.88
2023-02-18T21:59:37.957Z,36.70
2023-02-18T22:02:08.444Z,35.10
2023-02-18T22:04:38.812Z,35.80
2023-02-18T22:07:08.464Z,35.47
2023-02-18T22:09:38.510Z,34.67
2023-02-18T22:12:08.486Z,32.47
2023-02-18T22:14:38.148Z,34.28
2023-02-18T22:17:08.342Z,34.65
2023-02-18T22:19:38.276Z,33.75
2023-02-18T22:22:07.933Z,34.55
2023-02-18T22:24:37.642Z,32.95
2023-02-18T22:27:07.273Z,33.70
2023-02-18T22:29:36.862Z,32.97
2023-02-18T22:32:06.771Z,33.25
2023-02-18T22:34:36.454Z,33.15
2023-02-18T22:37:06.171Z,34.55
2023-02-18T22:39:35.877Z,33.08
2023-02-18T22:42:05.538Z,32.08
2023-02-18T22:44:35.196Z,31.85
2023-02-18T22:47:04.817Z,31.75
2023-02-18T22:49:34.396Z,30.55
2023-02-18T22:52:04.419Z,31.42
2023-02-18T22:54:34.025Z,30.83
2023-02-18T22:57:03.593Z,30.10
2023-02-18T22:59:33.224Z,31.45
2023-02-18T23:02:02.842Z,31.08
2023-02-18T23:04:32.435Z,31.88
2023-02-18T23:07:02.153Z,33.72
2023-02-18T23:09:31.925Z,31.25
2023-02-18T23:12:01.653Z,30.13
2023-02-18T23:14:32.093Z,30.38
2023-02-18T23:17:15.130Z,30.67
2023-02-18T23:19:48.321Z,30.35
2023-02-18T23:22:22.731Z,31.63
2023-02-18T23:24:52.400Z,31.95
2023-02-18T23:27:22.849Z,31.75
2023-02-18T23:29:52.814Z,30.13
2023-02-18T23:32:22.448Z,30.77
2023-02-18T23:34:53.040Z,31.58
2023-02-18T23:37:45.304Z,30.40
2023-02-18T23:40:16.309Z,33.33
2023-02-18T23:42:45.937Z,29.80
2023-02-18T23:45:15.602Z,31.45
2023-02-18T23:47:45.221Z,30.77
2023-02-18T23:50:20.786Z,32.33
2023-02-18T23:52:51.656Z,30.33
2023-02-18T23:55:21.288Z,31.98
2023-02-18T23:57:51.053Z,31.38
